Time;durP1;ratioP1;P1;durP2;ratioP2;P2;SDS_P1;SDS_P2;PMS_P1;PMS_P2;Temp;Humidity;BMP_temperature;BMP_pressure;BME280_temperature;BME280_humidity;BME280_pressure;Samples;Min_cycle;Max_cycle;Signal;HPM_P1;HPM_P2
2021/08/22 00:00:47;;;;;;;14.10;11.70;;;;;;;14.94;72.18;98993.21;233084;1200;24307;-72
2021/08/22 00:05:50;;;;;;;13.40;10.70;;;;;;;14.86;72.02;98990.27;233218;1206;22462;-72
2021/08/22 00:10:58;;;;;;;14.10;10.20;;;;;;;14.78;72.27;98985.27;233086;1202;25106;-71
2021/08/22 00:16:04;;;;;;;12.70;10.60;;;;;;;14.74;72.59;98986.85;233250;1202;24067;-72
2021/08/22 00:21:21;;;;;;;13.80;11.30;;;;;;;14.68;72.68;98985.34;233262;1202;22533;-71
2021/08/22 00:26:43;;;;;;;11.40;9.90;;;;;;;14.60;72.85;98978.75;233045;1202;22456;-72
2021/08/22 00:31:47;;;;;;;12.60;10.90;;;;;;;14.54;73.05;98980.48;233160;1201;24300;-73
2021/08/22 00:37:04;;;;;;;12.70;11.30;;;;;;;14.49;73.18;98977.05;232993;1203;22455;-71
2021/08/22 00:42:07;;;;;;;11.90;10.60;;;;;;;14.39;73.38;98975.55;233344;1202;24202;-70
2021/08/22 00:47:09;;;;;;;15.60;11.50;;;;;;;14.28;73.55;98973.39;233127;1201;24146;-71
2021/08/22 00:52:26;;;;;;;14.00;11.70;;;;;;;14.21;73.81;98979.59;233058;1201;24057;-71
2021/08/22 00:57:45;;;;;;;13.10;10.50;;;;;;;14.16;74.17;98977.88;233408;1200;24057;-70
2021/08/22 01:03:19;;;;;;;13.90;12.30;;;;;;;14.13;74.35;98975.04;233193;1209;24307;-71
2021/08/22 01:08:42;;;;;;;17.70;13.40;;;;;;;14.12;74.71;98975.66;233136;1202;25166;-72
2021/08/22 01:14:10;;;;;;;16.70;10.80;;;;;;;14.09;75.03;98975.80;233294;1203;24061;-73
2021/08/22 01:19:34;;;;;;;15.80;12.00;;;;;;;14.03;74.81;98975.50;233335;1206;22525;-72
2021/08/22 01:24:39;;;;;;;14.10;12.10;;;;;;;13.99;75.03;98970.09;233262;1202;24166;-71
2021/08/22 01:29:50;;;;;;;15.60;12.60;;;;;;;14.06;75.64;98969.57;233208;1201;22446;-73
2021/08/22 01:34:54;;;;;;;14.10;12.60;;;;;;;14.09;75.67;98967.56;233445;1200;22941;-73
2021/08/22 01:39:57;;;;;;;14.90;12.10;;;;;;;14.05;75.48;98967.38;233339;1205;22527;-72
2021/08/22 01:45:02;;;;;;;17.90;14.40;;;;;;;13.99;75.38;98965.63;233509;1201;22567;-72
2021/08/22 01:50:18;;;;;;;18.90;14.60;;;;;;;13.93;75.63;98959.09;233287;1200;22452;-72
2021/08/22 01:55:21;;;;;;;15.10;12.30;;;;;;;13.93;75.94;98960.29;233079;1206;22663;-72
2021/08/22 02:00:30;;;;;;;16.20;11.60;;;;;;;13.96;76.22;98962.43;233032;1200;25408;-71
2021/08/22 02:05:37;;;;;;;17.70;13.10;;;;;;;13.99;76.24;98961.60;233637;1200;24120;-71
2021/08/22 02:10:47;;;;;;;16.60;14.20;;;;;;;13.94;76.02;98964.50;233448;1202;24058;-71
2021/08/22 02:15:55;;;;;;;17.20;13.10;;;;;;;13.92;76.19;98960.69;233267;1201;24055;-70
2021/08/22 02:20:58;;;;;;;15.00;12.80;;;;;;;13.93;76.41;98955.77;233389;1202;22450;-72
2021/08/22 02:26:14;;;;;;;17.60;14.60;;;;;;;13.95;76.52;98954.85;233258;1202;22607;-72
2021/08/22 02:31:33;;;;;;;18.70;14.80;;;;;;;13.95;76.54;98950.60;233241;1202;24070;-71
2021/08/22 02:36:37;;;;;;;16.40;13.40;;;;;;;13.87;76.49;98948.46;233124;1204;24096;-70
2021/08/22 02:41:40;;;;;;;14.70;12.60;;;;;;;13.81;76.36;98947.05;233394;1206;22453;-73
2021/08/22 02:46:42;;;;;;;16.60;14.10;;;;;;;13.72;76.50;98939.83;233317;1201;24066;-71
2021/08/22 02:51:45;;;;;;;18.90;14.70;;;;;;;13.66;76.55;98933.39;233070;1195;24111;-72
2021/08/22 02:56:50;;;;;;;18.40;15.00;;;;;;;13.60;76.87;98932.19;233176;1201;25209;-71
2021/08/22 03:01:53;;;;;;;16.60;13.90;;;;;;;13.53;76.91;98925.02;233135;1201;24064;-72
2021/08/22 03:07:12;;;;;;;15.80;13.20;;;;;;;13.42;76.68;98919.50;233134;1200;24050;-71
2021/08/22 03:12:14;;;;;;;16.00;13.40;;;;;;;13.30;76.87;98919.77;233114;1201;24055;-72
2021/08/22 03:17:32;;;;;;;20.10;15.50;;;;;;;13.26;77.22;98918.70;233220;1202;25141;-72
2021/08/22 03:22:55;;;;;;;19.10;15.60;;;;;;;13.17;77.22;98920.07;233406;1201;24183;-69
2021/08/22 03:27:58;;;;;;;16.70;13.90;;;;;;;13.04;77.20;98919.22;233230;1194;22489;-72
2021/08/22 03:33:00;;;;;;;18.30;13.00;;;;;;;12.92;77.33;98920.04;233078;1201;24092;-72
2021/08/22 03:38:03;;;;;;;17.80;13.20;;;;;;;12.85;77.48;98918.95;233269;1202;24089;-71
2021/08/22 03:43:06;;;;;;;18.60;14.80;;;;;;;12.82;77.78;98918.14;233264;1200;24220;-72
2021/08/22 03:48:09;;;;;;;18.00;14.50;;;;;;;12.84;78.13;98919.30;233391;1201;24096;-72
2021/08/22 03:53:12;;;;;;;18.20;14.30;;;;;;;12.85;78.28;98922.05;233504;1201;24044;-70
2021/08/22 03:58:15;;;;;;;17.80;15.20;;;;;;;12.89;78.43;98922.79;233241;1201;24071;-71
2021/08/22 04:03:18;;;;;;;18.60;14.60;;;;;;;12.84;78.50;98925.69;233237;1195;24061;-71
2021/08/22 04:08:56;;;;;;;15.80;13.50;;;;;;;12.84;78.56;98925.13;233059;1207;24075;-71
2021/08/22 04:13:59;;;;;;;16.90;13.80;;;;;;;12.88;78.71;98926.33;233224;1195;24268;-71
2021/08/22 04:19:02;;;;;;;20.00;15.90;;;;;;;12.96;78.97;98931.25;233319;1201;24026;-71
2021/08/22 04:24:15;;;;;;;17.50;14.50;;;;;;;13.07;79.04;98932.91;233289;1204;24182;-72
2021/08/22 04:29:20;;;;;;;18.10;14.70;;;;;;;13.13;78.81;98927.73;233436;1201;22448;-70
2021/08/22 04:34:30;;;;;;;17.00;13.70;;;;;;;13.24;78.89;98924.34;233161;1201;24080;-71
2021/08/22 04:39:35;;;;;;;18.10;15.00;;;;;;;13.34;78.80;98924.92;233268;1201;24115;-70
2021/08/22 04:44:37;;;;;;;18.70;15.80;;;;;;;13.46;78.84;98922.05;233301;1201;24117;-72
2021/08/22 04:49:40;;;;;;;18.10;14.60;;;;;;;13.59;78.89;98924.30;233325;1202;25298;-71
2021/08/22 04:54:42;;;;;;;18.50;14.60;;;;;;;13.69;78.84;98915.39;233246;1201;25165;-71
2021/08/22 04:59:45;;;;;;;16.80;13.70;;;;;;;13.81;78.64;98912.85;233222;1200;24112;-72
2021/08/22 05:04:47;;;;;;;17.90;15.30;;;;;;;13.97;78.54;98910.25;233407;1201;24169;-72
2021/08/22 05:09:53;;;;;;;17.50;15.50;;;;;;;14.16;78.72;98909.58;233311;1201;24559;-71
2021/08/22 05:14:56;;;;;;;14.70;13.20;;;;;;;14.36;78.86;98907.48;233439;1194;22478;-72
2021/08/22 05:19:59;;;;;;;15.40;13.70;;;;;;;14.58;78.75;98907.09;233493;1201;24214;-70
2021/08/22 05:25:01;;;;;;;16.90;14.40;;;;;;;14.82;78.98;98906.23;233300;1195;24176;-71
2021/08/22 05:30:05;;;;;;;14.50;13.00;;;;;;;15.05;79.00;98912.02;233020;1201;24053;-71
2021/08/22 05:35:21;;;;;;;16.60;14.90;;;;;;;15.31;78.74;98916.89;233275;1201;22563;-72
2021/08/22 05:40:37;;;;;;;18.60;15.60;;;;;;;15.59;78.80;98913.98;233222;1196;22475;-72
2021/08/22 05:45:43;;;;;;;19.10;16.10;;;;;;;15.85;78.29;98915.84;233163;1193;22487;-72
2021/08/22 05:50:45;;;;;;;15.80;13.80;;;;;;;16.03;77.88;98913.81;233219;1201;24124;-72
2021/08/22 05:55:47;;;;;;;16.10;14.40;;;;;;;16.20;77.38;98914.85;233227;1194;24006;-72
2021/08/22 06:00:50;;;;;;;18.30;15.40;;;;;;;16.43;77.33;98915.45;232969;1201;22471;-71
2021/08/22 06:05:53;;;;;;;17.30;15.30;;;;;;;16.72;77.17;98914.41;233187;1194;24067;-72
2021/08/22 06:10:56;;;;;;;17.80;15.20;;;;;;;17.01;76.72;98915.08;233411;1200;24061;-72
2021/08/22 06:15:59;;;;;;;15.00;13.40;;;;;;;17.27;75.95;98915.84;233367;1202;24012;-71
2021/08/22 06:21:01;;;;;;;16.30;14.60;;;;;;;17.51;75.23;98908.44;233273;1200;24213;-72
2021/08/22 06:26:03;;;;;;;15.90;14.20;;;;;;;17.68;74.59;98905.89;233287;1194;24052;-72
2021/08/22 06:31:14;;;;;;;17.20;13.60;;;;;;;17.84;74.26;98911.23;233245;1195;24210;-71
2021/08/22 06:36:25;;;;;;;15.00;13.40;;;;;;;17.97;73.78;98919.23;233143;1201;24163;-71
2021/08/22 06:41:28;;;;;;;15.20;13.60;;;;;;;18.14;73.51;98918.27;233210;1201;24029;-70
2021/08/22 06:46:31;;;;;;;17.40;15.10;;;;;;;18.28;73.09;98915.85;233063;1201;24116;-72
2021/08/22 06:51:34;;;;;;;16.10;14.10;;;;;;;18.35;72.93;98913.70;233180;1201;25208;-71
2021/08/22 06:56:45;;;;;;;16.70;14.90;;;;;;;18.60;73.14;98918.15;233208;1201;25187;-73
2021/08/22 07:02:10;;;;;;;15.80;14.20;;;;;;;18.95;73.09;98919.48;233108;1201;24057;-73
2021/08/22 07:07:14;;;;;;;12.00;10.70;;;;;;;19.22;72.16;98925.66;233215;1201;25154;-70
2021/08/22 07:12:17;;;;;;;13.40;12.00;;;;;;;19.31;71.07;98926.25;233209;1201;22477;-73
2021/08/22 07:17:21;;;;;;;13.50;12.00;;;;;;;19.53;71.30;98926.42;233607;1200;24163;-72
2021/08/22 07:22:24;;;;;;;12.90;10.80;;;;;;;19.88;70.98;98928.73;233136;1201;24293;-72
2021/08/22 07:27:27;;;;;;;9.70;8.70;;;;;;;20.15;70.15;98926.33;233335;1201;24858;-70
2021/08/22 07:32:30;;;;;;;11.40;10.20;;;;;;;20.32;68.74;98929.73;233123;1202;24174;-72
2021/08/22 07:37:33;;;;;;;10.40;9.40;;;;;;;20.43;68.32;98933.82;233323;1201;24075;-71
2021/08/22 07:42:37;;;;;;;10.60;9.60;;;;;;;20.62;68.21;98926.91;233300;1201;24045;-72
2021/08/22 07:48:00;;;;;;;9.70;8.60;;;;;;;20.99;68.07;98920.23;233120;1201;25219;-73
2021/08/22 07:53:03;;;;;;;11.70;9.10;;;;;;;21.29;67.74;98915.67;233296;1194;24061;-72
2021/08/22 07:58:06;;;;;;;8.70;7.70;;;;;;;21.52;67.34;98916.64;233376;1201;24058;-71
2021/08/22 08:03:10;;;;;;;7.90;7.20;;;;;;;21.80;66.63;98917.59;233208;1201;24027;-71
2021/08/22 08:08:13;;;;;;;7.80;6.60;;;;;;;21.99;65.11;98915.30;233150;1201;24092;-72
2021/08/22 08:13:16;;;;;;;7.80;7.10;;;;;;;22.14;64.03;98924.39;233182;1201;24065;-70
2021/08/22 08:18:21;;;;;;;7.50;6.70;;;;;;;22.29;63.62;98922.06;233248;1201;22458;-71
2021/08/22 08:23:24;;;;;;;7.50;6.80;;;;;;;22.43;62.07;98920.84;233266;1202;24109;-71
2021/08/22 08:28:28;;;;;;;7.40;6.70;;;;;;;22.57;62.17;98920.52;233122;1201;22446;-71
2021/08/22 08:33:32;;;;;;;7.20;6.50;;;;;;;22.92;62.67;98921.86;233388;1201;26253;-72
2021/08/22 08:38:35;;;;;;;7.00;6.40;;;;;;;23.23;62.08;98919.27;233228;1201;24066;-70
2021/08/22 08:43:39;;;;;;;7.30;6.30;;;;;;;23.46;61.14;98911.59;233363;1202;24863;-71
2021/08/22 08:49:14;;;;;;;5.70;5.20;;;;;;;23.69;60.40;98905.46;233501;1201;22443;-72
2021/08/22 08:54:27;;;;;;;6.30;5.80;;;;;;;23.84;58.65;98905.88;233473;1197;25459;-70
2021/08/22 08:59:35;;;;;;;6.40;5.80;;;;;;;24.04;58.91;98910.63;233141;1208;25014;-71
2021/08/22 09:05:10;;;;;;;6.80;6.10;;;;;;;24.26;58.26;98902.08;233159;1201;23105;-70
2021/08/22 09:10:35;;;;;;;5.60;5.10;;;;;;;24.37;57.32;98902.58;233243;1193;25280;-71
2021/08/22 09:16:17;;;;;;;5.70;5.30;;;;;;;24.40;55.56;98906.98;233099;1201;24063;-71
2021/08/22 09:21:53;;;;;;;6.40;5.80;;;;;;;24.56;55.84;98904.30;233346;1202;24074;-71
2021/08/22 09:27:33;;;;;;;5.10;4.60;;;;;;;24.69;54.95;98906.20;233217;1202;24114;-70
2021/08/22 09:33:21;;;;;;;5.80;5.00;;;;;;;24.57;52.89;98909.92;233104;1201;24146;-71
2021/08/22 09:39:30;;;;;;;4.60;4.20;;;;;;;24.84;54.19;98908.58;233238;1201;24096;-72
2021/08/22 09:44:43;;;;;;;5.90;5.30;;;;;;;25.27;53.89;98903.20;233245;1201;22471;-70
2021/08/22 09:50:07;;;;;;;6.40;5.80;;;;;;;25.56;53.31;98898.58;233210;1201;24093;-70
2021/08/22 09:55:28;;;;;;;5.80;5.30;;;;;;;25.89;52.91;98887.54;233332;1201;24077;-71
2021/08/22 10:01:09;;;;;;;5.70;5.20;;;;;;;26.04;51.79;98886.57;233227;1202;24049;-70
2021/08/22 10:06:32;;;;;;;5.20;4.80;;;;;;;26.04;49.84;98882.87;233169;1201;25177;-71
2021/08/22 10:12:01;;;;;;;4.80;4.40;;;;;;;25.89;48.91;98878.44;233419;1201;24084;-70
2021/08/22 10:17:05;;;;;;;5.30;3.80;;;;;;;25.86;49.36;98874.27;233386;1201;22845;-70
2021/08/22 10:22:12;;;;;;;5.20;4.70;;;;;;;25.96;48.59;98876.42;233480;1201;22447;-70
2021/08/22 10:27:30;;;;;;;4.10;3.80;;;;;;;26.08;48.71;98872.38;233332;1201;22482;-71
2021/08/22 10:32:56;;;;;;;4.70;4.30;;;;;;;26.28;48.26;98869.80;233372;1201;24052;-72
2021/08/22 10:38:29;;;;;;;7.40;4.00;;;;;;;26.42;48.36;98873.49;233343;1201;22464;-73
2021/08/22 10:43:36;;;;;;;3.60;3.30;;;;;;;26.69;47.16;98874.41;233248;1201;24079;-72
2021/08/22 10:48:38;;;;;;;3.90;3.60;;;;;;;26.72;46.34;98873.95;233376;1196;24068;-72
2021/08/22 10:53:47;;;;;;;3.50;3.20;;;;;;;26.92;46.71;98871.49;233327;1201;24208;-70
2021/08/22 10:58:59;;;;;;;4.00;3.60;;;;;;;26.87;45.39;98876.38;233471;1201;22461;-71
2021/08/22 11:04:27;;;;;;;4.70;3.70;;;;;;;27.00;45.96;98871.70;233534;1201;26636;-71
2021/08/22 11:09:50;;;;;;;4.60;4.20;;;;;;;27.34;44.99;98870.27;233399;1193;22446;-72
2021/08/22 11:14:53;;;;;;;4.60;4.20;;;;;;;27.41;44.49;98872.28;233276;1201;24077;-72
2021/08/22 11:20:12;;;;;;;6.00;5.40;;;;;;;27.62;45.00;98863.70;233261;1201;25226;-72
2021/08/22 11:25:16;;;;;;;4.40;4.00;;;;;;;28.11;45.11;98862.70;233512;1201;24067;-72
2021/08/22 11:30:18;;;;;;;5.60;5.10;;;;;;;28.28;43.88;98858.48;233514;1201;25041;-73
2021/08/22 11:35:27;;;;;;;4.50;4.10;;;;;;;28.22;42.46;98854.76;233283;1193;25121;-72
2021/08/22 11:40:31;;;;;;;4.00;3.70;;;;;;;27.98;42.82;98859.08;233295;1201;24051;-72
2021/08/22 11:45:43;;;;;;;4.00;3.60;;;;;;;27.99;43.81;98852.55;233364;1201;22455;-71
2021/08/22 11:51:09;;;;;;;4.00;3.70;;;;;;;27.99;43.84;98852.23;233230;1193;26155;-72
2021/08/22 11:56:23;;;;;;;4.10;3.80;;;;;;;27.93;43.51;98845.03;233218;1202;22455;-72
2021/08/22 12:01:39;;;;;;;4.60;4.20;;;;;;;27.83;43.61;98845.48;233091;1201;25322;-72
2021/08/22 12:06:41;;;;;;;4.70;3.80;;;;;;;27.98;43.69;98845.95;233182;1204;22465;-71
2021/08/22 12:11:44;;;;;;;5.90;5.20;;;;;;;28.18;42.88;98844.23;233225;1201;24097;-72
2021/08/22 12:16:56;;;;;;;4.70;4.30;;;;;;;28.20;42.42;98840.61;233420;1201;24074;-71
2021/08/22 12:22:09;;;;;;;4.00;3.70;;;;;;;28.21;42.48;98836.20;233292;1201;24075;-72
2021/08/22 12:27:37;;;;;;;4.30;4.00;;;;;;;28.30;42.01;98830.45;233338;1202;24061;-70
2021/08/22 12:32:54;;;;;;;3.90;3.50;;;;;;;28.47;41.87;98821.73;233363;1200;24068;-69
2021/08/22 12:38:11;;;;;;;3.50;3.20;;;;;;;28.55;40.64;98814.16;233558;1202;24051;-72
2021/08/22 12:43:14;;;;;;;9.30;8.40;;;;;;;28.68;40.21;98813.27;233457;1203;22447;-69
2021/08/22 12:48:17;;;;;;;4.40;4.00;;;;;;;28.69;39.77;98816.73;233484;1201;24061;-70
2021/08/22 12:53:19;;;;;;;4.20;3.50;;;;;;;28.47;39.67;98819.99;233446;1194;24050;-73
2021/08/22 12:58:22;;;;;;;3.70;3.40;;;;;;;28.15;40.15;98816.98;233305;1201;22447;-72
2021/08/22 13:03:25;;;;;;;3.70;3.40;;;;;;;28.19;40.76;98812.21;233273;1201;22480;-70
2021/08/22 13:08:28;;;;;;;3.70;3.40;;;;;;;28.41;40.88;98803.98;233255;1201;22565;-71
2021/08/22 13:13:31;;;;;;;3.50;3.00;;;;;;;28.42;40.36;98801.38;233373;1201;24094;-71
2021/08/22 13:18:34;;;;;;;4.40;4.00;;;;;;;28.20;40.26;98799.38;233258;1201;24240;-72
2021/08/22 13:23:39;;;;;;;4.90;4.10;;;;;;;27.92;40.49;98792.35;233307;1196;24217;-72
2021/08/22 13:28:42;;;;;;;4.50;4.10;;;;;;;27.75;41.28;98785.17;233477;1202;23164;-70
2021/08/22 13:33:44;;;;;;;3.90;3.50;;;;;;;27.75;41.69;98780.45;233273;1195;24099;-70
2021/08/22 13:38:47;;;;;;;4.10;3.70;;;;;;;27.78;41.86;98775.23;233268;1201;24100;-70
2021/08/22 13:43:49;;;;;;;4.00;3.60;;;;;;;27.91;42.41;98774.52;233398;1201;22449;-71
2021/08/22 13:48:51;;;;;;;3.20;2.90;;;;;;;28.07;41.94;98763.70;233148;1201;24094;-71
2021/08/22 13:54:01;;;;;;;4.50;3.60;;;;;;;28.19;41.66;98757.77;233277;1202;24196;-71
2021/08/22 13:59:24;;;;;;;3.60;3.30;;;;;;;28.41;41.80;98754.95;233308;1193;24103;-72
2021/08/22 14:04:30;;;;;;;3.50;3.20;;;;;;;28.52;41.58;98754.27;233206;1202;24100;-70
2021/08/22 14:09:33;;;;;;;3.50;3.20;;;;;;;28.51;41.46;98751.06;233241;1202;25213;-72
2021/08/22 14:14:35;;;;;;;3.40;3.10;;;;;;;28.56;41.50;98743.14;233186;1201;24216;-70
2021/08/22 14:19:38;;;;;;;3.80;3.50;;;;;;;28.57;41.21;98731.89;233084;1201;24090;-72
2021/08/22 14:24:40;;;;;;;5.50;3.80;;;;;;;28.46;41.30;98725.78;233188;1201;24057;-72
2021/08/22 14:29:43;;;;;;;3.90;3.60;;;;;;;28.29;41.45;98720.77;233432;1202;24137;-72
2021/08/22 14:34:45;;;;;;;4.20;3.80;;;;;;;28.10;41.38;98715.77;233065;1203;24139;-72
2021/08/22 14:39:49;;;;;;;3.00;2.80;;;;;;;27.78;41.26;98711.54;233299;1202;24066;-72
2021/08/22 14:44:58;;;;;;;3.50;3.20;;;;;;;27.42;41.34;98709.92;233432;1196;24161;-72
2021/08/22 14:50:02;;;;;;;4.70;3.20;;;;;;;27.23;41.76;98707.67;233267;1202;24106;-72
2021/08/22 14:55:12;;;;;;;4.20;3.20;;;;;;;27.13;42.22;98698.63;233493;1193;24072;-72
2021/08/22 15:00:35;;;;;;;3.90;3.50;;;;;;;27.10;42.80;98695.35;233310;1196;24052;-70
2021/08/22 15:05:38;;;;;;;4.10;3.80;;;;;;;27.16;42.94;98695.30;233416;1206;25033;-72
2021/08/22 15:10:40;;;;;;;3.90;3.40;;;;;;;27.24;42.90;98692.20;233249;1209;24307;-72
2021/08/22 15:15:44;;;;;;;4.70;3.50;;;;;;;27.31;42.85;98695.06;233350;1207;22521;-72
2021/08/22 15:20:47;;;;;;;3.80;3.50;;;;;;;27.26;42.70;98697.44;233350;1207;24083;-72
2021/08/22 15:25:49;;;;;;;4.90;3.70;;;;;;;27.19;42.94;98689.94;233243;1202;22572;-72
2021/08/22 15:30:52;;;;;;;5.60;3.80;;;;;;;27.08;43.03;98687.18;233457;1202;24223;-72
2021/08/22 15:35:55;;;;;;;4.20;3.90;;;;;;;27.00;43.24;98687.00;233378;1207;24070;-72
2021/08/22 15:40:57;;;;;;;4.60;4.20;;;;;;;26.87;43.51;98678.75;233383;1202;24064;-70
2021/08/22 15:45:59;;;;;;;6.10;5.50;;;;;;;26.73;43.62;98675.73;233360;1206;24060;-72
2021/08/22 15:51:09;;;;;;;4.80;4.40;;;;;;;26.58;43.98;98671.63;233446;1201;24082;-72
2021/08/22 15:56:28;;;;;;;4.90;4.50;;;;;;;26.43;44.32;98673.57;233223;1201;22486;-72
2021/08/22 16:01:31;;;;;;;4.70;4.30;;;;;;;26.29;44.68;98671.73;233480;1201;23662;-72
2021/08/22 16:06:34;;;;;;;4.50;4.10;;;;;;;26.14;44.73;98667.54;233407;1202;23989;-73
2021/08/22 16:11:40;;;;;;;4.50;4.10;;;;;;;25.95;45.07;98667.39;233489;1197;22523;-73
2021/08/22 16:16:44;;;;;;;4.90;4.50;;;;;;;25.73;45.51;98659.17;233447;1201;24217;-73
2021/08/22 16:21:46;;;;;;;6.00;4.80;;;;;;;25.53;46.08;98652.39;233443;1200;24056;-71
2021/08/22 16:26:48;;;;;;;4.90;4.40;;;;;;;25.36;46.61;98646.26;233512;1202;24071;-71
2021/08/22 16:31:51;;;;;;;5.20;4.30;;;;;;;25.16;47.07;98648.26;233393;1202;22478;-71
2021/08/22 16:36:55;;;;;;;5.40;3.90;;;;;;;24.96;47.54;98656.67;233437;1196;24052;-72
2021/08/22 16:41:58;;;;;;;4.90;4.20;;;;;;;24.79;48.00;98661.95;233420;1203;24051;-72
2021/08/22 16:47:02;;;;;;;4.50;4.00;;;;;;;24.66;48.36;98660.82;233697;1202;24067;-70
2021/08/22 16:52:04;;;;;;;4.40;3.90;;;;;;;24.54;48.66;98661.83;233601;1195;24243;-72
2021/08/22 16:57:07;;;;;;;4.40;4.00;;;;;;;24.42;49.08;98670.06;233417;1202;24170;-72
2021/08/22 17:02:10;;;;;;;3.90;3.60;;;;;;;24.29;49.47;98673.92;233380;1202;22565;-72
2021/08/22 17:07:25;;;;;;;4.90;4.40;;;;;;;24.18;49.92;98676.35;233336;1205;24106;-72
2021/08/22 17:12:48;;;;;;;6.00;5.10;;;;;;;24.06;50.61;98675.81;233601;1205;24111;-72
2021/08/22 17:17:52;;;;;;;5.10;4.70;;;;;;;23.95;51.14;98671.30;233546;1203;24334;-70
2021/08/22 17:22:55;;;;;;;5.90;5.20;;;;;;;23.80;51.58;98673.81;233432;1203;22459;-72
2021/08/22 17:27:58;;;;;;;6.20;5.10;;;;;;;23.67;51.85;98680.13;233475;1202;24098;-72
2021/08/22 17:33:12;;;;;;;5.20;4.70;;;;;;;23.57;52.26;98676.69;233595;1201;24102;-70
2021/08/22 17:38:35;;;;;;;6.90;5.70;;;;;;;23.46;52.74;98676.27;233314;1197;24172;-73
2021/08/22 17:43:38;;;;;;;6.30;4.90;;;;;;;23.33;53.05;98673.04;233434;1203;24045;-72
2021/08/22 17:48:42;;;;;;;8.50;5.20;;;;;;;23.22;53.37;98674.58;233385;1201;24183;-72
2021/08/22 17:53:45;;;;;;;5.70;4.30;;;;;;;23.08;53.85;98677.46;233686;1206;22466;-72
2021/08/22 17:58:47;;;;;;;4.90;4.20;;;;;;;22.91;54.16;98672.36;233492;1200;22492;-69
2021/08/22 18:03:50;;;;;;;4.80;3.90;;;;;;;22.78;54.62;98674.24;233449;1202;24217;-72
2021/08/22 18:08:52;;;;;;;4.50;4.10;;;;;;;22.65;54.85;98677.21;233600;1202;24169;-70
2021/08/22 18:13:55;;;;;;;6.20;4.00;;;;;;;22.57;55.15;98680.70;233407;1202;24188;-72
2021/08/22 18:18:59;;;;;;;5.00;4.40;;;;;;;22.52;55.37;98685.55;233352;1206;22457;-72
2021/08/22 18:24:01;;;;;;;4.90;4.40;;;;;;;22.52;55.92;98692.27;233376;1197;24226;-72
2021/08/22 18:29:05;;;;;;;7.70;4.60;;;;;;;22.53;56.34;98690.25;233363;1201;24063;-70
2021/08/22 18:34:08;;;;;;;10.60;4.40;;;;;;;22.54;56.55;98693.70;233305;1202;24108;-71
2021/08/22 18:39:11;;;;;;;4.80;4.30;;;;;;;22.52;56.95;98697.48;233489;1202;22504;-72
2021/08/22 18:44:13;;;;;;;7.60;4.80;;;;;;;22.42;57.08;98708.05;233523;1202;22461;-72
2021/08/22 18:49:16;;;;;;;5.40;4.50;;;;;;;22.24;57.19;98709.33;233144;1202;24062;-72
2021/08/22 18:54:22;;;;;;;5.00;4.50;;;;;;;22.08;57.32;98724.52;233327;1202;22800;-70
2021/08/22 18:59:35;;;;;;;12.10;5.60;;;;;;;21.96;58.57;98753.86;233549;1202;22482;-71
2021/08/22 19:04:40;;;;;;;11.40;5.50;;;;;;;21.72;60.23;98753.79;233628;1201;22510;-71
2021/08/22 19:09:45;;;;;;;6.30;4.80;;;;;;;21.29;61.51;98767.71;233184;1205;24102;-71
2021/08/22 19:14:47;;;;;;;5.70;4.70;;;;;;;20.87;62.67;98758.40;233372;1205;25145;-71
2021/08/22 19:19:50;;;;;;;8.30;5.50;;;;;;;20.41;64.05;98749.77;233370;1201;24043;-71
2021/08/22 19:24:53;;;;;;;5.40;4.30;;;;;;;20.02;65.19;98744.06;233492;1201;25590;-71
2021/08/22 19:29:57;;;;;;;6.10;4.70;;;;;;;19.76;66.08;98749.17;233331;1202;22469;-71
2021/08/22 19:34:59;;;;;;;6.10;5.00;;;;;;;19.59;66.74;98740.98;233320;1202;23286;-71
2021/08/22 19:40:02;;;;;;;6.10;5.50;;;;;;;19.50;67.39;98740.51;233389;1206;24140;-72
2021/08/22 19:45:06;;;;;;;6.50;5.40;;;;;;;19.41;67.79;98742.45;233487;1203;22665;-71
2021/08/22 19:50:11;;;;;;;7.70;5.40;;;;;;;19.36;68.40;98734.71;233379;1202;24055;-71
2021/08/22 19:55:14;;;;;;;6.60;5.60;;;;;;;19.34;68.87;98734.11;233368;1202;24111;-71
2021/08/22 20:00:16;;;;;;;5.70;5.20;;;;;;;19.32;69.06;98725.93;233381;1200;24135;-70
2021/08/22 20:05:20;;;;;;;6.30;4.50;;;;;;;19.27;69.14;98726.52;233383;1201;22578;-72
2021/08/22 20:10:23;;;;;;;7.00;4.50;;;;;;;19.22;69.40;98726.98;233239;1200;24104;-71
2021/08/22 20:15:27;;;;;;;7.50;5.50;;;;;;;19.21;69.64;98718.12;233615;1202;25146;-72
2021/08/22 20:20:29;;;;;;;7.30;5.00;;;;;;;19.18;69.73;98708.72;233421;1206;22376;-73
2021/08/22 20:25:32;;;;;;;5.60;5.10;;;;;;;19.12;70.01;98706.62;233466;1201;25218;-70
2021/08/22 20:30:36;;;;;;;5.80;5.00;;;;;;;19.10;70.21;98707.65;233340;1201;24074;-71
2021/08/22 20:35:38;;;;;;;8.10;5.90;;;;;;;19.11;70.51;98711.17;233317;1202;24101;-71
2021/08/22 20:40:41;;;;;;;9.40;6.00;;;;;;;19.14;70.96;98715.36;233284;1205;24109;-72
2021/08/22 20:45:43;;;;;;;8.10;6.50;;;;;;;19.13;71.17;98720.77;233460;1193;24020;-71
2021/08/22 20:50:45;;;;;;;11.20;8.10;;;;;;;19.13;71.28;98725.80;233205;1201;24077;-72
2021/08/22 20:56:01;;;;;;;12.30;8.70;;;;;;;19.16;71.45;98727.66;233285;1202;22433;-71
2021/08/22 21:01:24;;;;;;;10.30;9.20;;;;;;;19.21;71.69;98719.42;233254;1196;24141;-71
2021/08/22 21:06:26;;;;;;;12.90;9.50;;;;;;;19.20;71.86;98723.34;233251;1202;24067;-70
2021/08/22 21:11:30;;;;;;;10.50;8.70;;;;;;;19.13;71.80;98724.42;233129;1201;22565;-70
2021/08/22 21:16:34;;;;;;;10.70;9.10;;;;;;;19.07;72.08;98726.10;233204;1203;25221;-71
2021/08/22 21:21:37;;;;;;;8.40;7.60;;;;;;;18.96;72.20;98723.95;233206;1201;24092;-72
2021/08/22 21:26:53;;;;;;;7.90;7.10;;;;;;;18.84;72.73;98721.89;233300;1202;24057;-72
2021/08/22 21:32:04;;;;;;;8.30;7.40;;;;;;;18.72;72.97;98718.21;232984;1201;24514;-72
2021/08/22 21:37:06;;;;;;;8.50;7.40;;;;;;;18.63;73.42;98710.89;233426;1201;24061;-72
2021/08/22 21:42:09;;;;;;;8.10;7.20;;;;;;;18.53;73.66;98704.73;233201;1202;25195;-72
2021/08/22 21:47:12;;;;;;;8.00;6.90;;;;;;;18.44;74.09;98698.73;233363;1201;24093;-73
2021/08/22 21:52:15;;;;;;;6.70;6.00;;;;;;;18.37;74.40;98699.99;233203;1205;24172;-71
2021/08/22 21:57:18;;;;;;;6.50;5.90;;;;;;;18.32;74.75;98697.89;233425;1202;23090;-70
2021/08/22 22:02:20;;;;;;;6.60;5.90;;;;;;;18.28;75.04;98695.61;233177;1195;24218;-70
2021/08/22 22:07:23;;;;;;;6.30;5.60;;;;;;;18.27;75.34;98693.95;233168;1204;22456;-72
2021/08/22 22:12:26;;;;;;;6.90;5.70;;;;;;;18.26;75.42;98692.86;233303;1201;24016;-72
2021/08/22 22:17:29;;;;;;;6.30;5.50;;;;;;;18.25;75.52;98688.43;233221;1201;24143;-72
2021/08/22 22:22:32;;;;;;;6.50;5.80;;;;;;;18.23;75.71;98683.70;232763;1201;24168;-72
2021/08/22 22:27:35;;;;;;;7.40;6.10;;;;;;;18.22;75.88;98684.92;233267;1195;24073;-72
2021/08/22 22:32:37;;;;;;;7.20;6.50;;;;;;;18.22;76.06;98683.52;233181;1209;25339;-72
2021/08/22 22:37:40;;;;;;;8.30;6.60;;;;;;;18.21;76.12;98680.85;233181;1205;22474;-72
2021/08/22 22:42:42;;;;;;;7.10;6.10;;;;;;;18.21;76.11;98677.96;233124;1203;24070;-71
2021/08/22 22:47:45;;;;;;;7.10;5.80;;;;;;;18.21;76.16;98671.70;233225;1201;24089;-71
2021/08/22 22:52:48;;;;;;;9.70;7.40;;;;;;;18.17;76.19;98668.58;233090;1201;25203;-73
2021/08/22 22:57:50;;;;;;;8.50;7.70;;;;;;;18.15;76.25;98671.98;233156;1197;22566;-73
2021/08/22 23:02:53;;;;;;;9.10;7.70;;;;;;;18.12;76.37;98673.52;233362;1201;24054;-72
2021/08/22 23:07:55;;;;;;;9.80;7.90;;;;;;;18.17;76.60;98665.07;233206;1195;24108;-70
2021/08/22 23:12:58;;;;;;;10.80;8.90;;;;;;;18.22;76.73;98647.26;233301;1208;24000;-72
2021/08/22 23:18:01;;;;;;;9.90;8.90;;;;;;;18.19;76.72;98645.54;233357;1202;24052;-69
2021/08/22 23:23:03;;;;;;;10.60;9.00;;;;;;;18.14;76.84;98649.98;233369;1192;24102;-71
2021/08/22 23:28:05;;;;;;;10.30;8.60;;;;;;;18.12;76.97;98647.05;233233;1201;24074;-70
2021/08/22 23:33:21;;;;;;;9.10;8.00;;;;;;;18.12;76.95;98646.95;233275;1201;24136;-70
2021/08/22 23:38:35;;;;;;;7.00;6.40;;;;;;;18.13;77.13;98639.41;232775;1202;25622;-70